WEATHER DATA

TODAY
Time Temp. Dewp. Hum. Bar. 1h Prec. 24h Prec.
00:02 0.1 -1.5 88 1005.2 0.0000 0.0000
00:11 0 -1.5 88 1005 0.0000 0.0000
00:32 0 -1.4 89 1004.9 0.0000 0.0000
00:42 0 -1.5 88 1004.9 0.0000 0.0000
00:51 0 -1.5 88 1004.9 0.0000 0.0000
01:12 0 -1.5 88 1004.7 0.0000 0.0000
01:27 0 -1.5 88 1004.7 0.0000 0.0000
01:37 0 -1.5 88 1004.7 0.0000 0.0000
01:47 0 -1.5 88 1004.7 0.0000 0.0000
01:57 0 -1.5 88 1004.6 0.0000 0.0000
02:08 0 -1.5 88 1004.6 0.0000 0.0000
02:23 0 -1.7 87 1004.4 0.0000 0.0000
02:32 0 -1.7 87 1004.5 0.0000 0.0000
02:43 0 -1.7 87 1004.3 0.0000 0.0000
02:53 0 -1.7 87 1004.3 0.0000 0.0000
03:03 0 -1.7 87 1004.2 0.0000 0.0000
03:12 0 -1.7 87 1004 0.0000 0.0000
03:23 0.1 -1.7 86 1003.8 0.0000 0.0000
03:38 0.1 -1.7 86 1003.7 0.0000 0.0000
03:48 0.2 -1.8 85 1003.7 0.0000 0.0000
03:58 0.1 -1.9 85 1003.6 0.0000 0.0000
04:08 0.1 -1.9 85 1003.6 0.0000 0.0000
04:18 0.1 -1.7 86 1003.5 0.0000 0.0000
04:29 0 -1.8 86 1003.5 0.0000 0.0000
04:38 0 -1.8 86 1003.5 0.0000 0.0000
04:48 0 -1.8 86 1003.5 0.0000 0.0000
04:58 0 -1.8 86 1003.5 0.0000 0.0000
05:09 0 -1.7 87 1003.4 0.0000 0.0000
05:18 0 -1.5 88 1003.2 0.0000 0.0000
05:28 0 -1.5 88 1003.4 0.0000 0.0000
05:39 0 -1.5 88 1003.5 0.0000 0.0000
05:49 0 -1.4 89 1003.5 0.0000 0.0000
05:59 0 -1.4 89 1003.5 0.0000 0.0000
06:08 0 -1.4 89 1003.4 0.0000 0.0000
06:29 0 -1.4 89 1003.6 0.0000 0.0000
06:39 0 -1.3 90 1003.5 0.0000 0.0000
06:49 0 -1.3 90 1003.5 0.0000 0.0000
06:59 0 -1.3 90 1003.6 0.0000 0.0000
07:14 0 -1.3 90 1003.7 0.0000 0.0000
07:25 0 -1.1 91 1003.6 0.0000 0.0000
07:34 0.1 -1.1 91 1003.8 0.0000 0.0000
07:54 0.3 -0.6 93 1003.7 0.0000 0.0000
08:05 0.4 -0.4 94 1003.8 0.0000 0.0000
08:19 0.5 -0.3 94 1003.9 0.0000 0.0000
08:40 0.7 0 95 1004 0.0000 0.0000
08:50 0.7 0 95 1004.2 0.0000 0.0000
09:05 0.8 0.2 96 1004 0.0000 0.0000
09:15 0.8 0.2 96 1003.8 0.0000 0.0000
09:25 0.9 0.3 96 1003.9 0.0000 0.0000
09:35 0.9 0.5 97 1004 0.0000 0.0000
09:45 1 0.6 97 1004.2 0.0000 0.0000
09:55 1.1 0.7 97 1003.9 0.0000 0.0000
10:05 1.2 0.9 98 1003.8 0.0000 0.0000
10:15 1.3 1 98 1004 0.0000 0.0000
10:25 1.5 1.4 99 1003.9 0.0000 0.0000
10:35 1.7 1.6 99 1004 0.0000 0.0000
10:45 1.8 1.7 99 1003.8 0.0000 0.0000
10:56 1.9 1.8 99 1003.7 0.0000 0.0000
11:06 2 1.9 99 1003.7 0.0000 0.0000
11:15 2.1 2 99 1003.7 0.0000 0.0000
11:26 2.2 2.1 99 1003.6 0.0000 0.0000
11:36 2.2 2.1 99 1003.5 0.0000 0.0000
11:46 2.2 2.1 99 1003.1 0.0000 0.0000
12:11 2.3 2.2 99 1003 0.0000 0.0000
12:21 2.4 2.3 99 1003 0.0000 0.0000
12:31 2.4 2.3 99 1002.8 0.0000 0.0000
12:42 2.4 2.3 99 1002.8 0.0000 0.0000

DAY STATISTIC

2018-11-19
TEMPERATURE
AVERAGE
0.6
HIGH
2.4
12:21
LOW
0.0
00:11
PRESSURE
AVERAGE
1003.9
HIGH
1005.2
00:02
LOW
1002.8
12:31
DEWPOINT
AVERAGE
-0.5
HIGH
2.3
12:21
LOW
-1.9
03:58
HUMIDITY
AVERAGE
92
HIGH
99
10:25
LOW
85
03:48
PRECIPITATION
RAIN HOUR
0.0
RAIN DAY
0.0
TEMPERATURE (°C)
LOW
0.0
HIGH
2.4
AVERAGE
0.6
PRESSURE (hpa)
LOW
1002.8
HIGH
1005.2
AVERAGE
1003.9
DEVICE